Saint Vrain, NM

6:56 PM MDT on March 25, 2017 (GMT -0600)
Melrose | | Change Station
Active Advisory: Fire Weather Watch

Elev 4600 ft 34.43 °N, 103.63 °W | Updated 10 seconds ago

Partly Cloudy
Partly Cloudy
68.5 °F
Feels Like 68.5 °F
N
6.9
Wind Variable Wind from SSE
Gusts 13.0 mph

Today
High -- | Low -- °F
--% Chance of Precip.
Yesterday
High -- | Low -- °F
Precip. -- in
Pressure 29.80 in
Visibility 10.0 miles
Clouds Few 20000 ft
Dew Point 32 °F
Humidity 26%
Rainfall 0.00 in
Snow Depth Not available.
6:50 AM 7:09 PM
Waning Crescent, 6% visible
METAR KCVS 252358Z AUTO 18011KT 10SM FEW200 21/M06 A2988 RMK AO2 SLP089 T02101057 10235 20164 57022 $
Pressure 29.80 in
Visibility 10.0 miles
Clouds Few 20000 ft
Dew Point 32 °F
Humidity 26%
Rainfall 0.00 in
Snow Depth Not available.
6:50 AM 7:09 PM
Waning Crescent, 6% visible
METAR KCVS 252358Z AUTO 18011KT 10SM FEW200 21/M06 A2988 RMK AO2 SLP089 T02101057 10235 20164 57022 $

Get Your Daily Forecast Email!

Thanks for signing up!

Be on the lookout for a verification email in your inbox.

You'll start receiving severe weather alerts in your inbox..

×

10-Day Weather Forecast

Almanac

Astronomy

Mar. 25, 2017 Rise Set
Actual Time
Civil Twilight
Nautical Twilight
Astronomical Twilight
Moon
Length of Visible Light
Length of Day
Tomorrow will be .
, % of the Moon is Illuminated

Today's Extremes

State Highs State Lows

Community

WunderPhotos

Upload Photos

1,962,540 photos uploaded!

WunderBlog® & News

Nearby

Air Quality

  Air Quality AQ Index Pollutant
Not available.

Snow Depth

Station Depth Elevation

Earthquake Activity

City Distance Mag. Time & Date
Minimum magnitude displayed is 2.5.

Earthquake Activity

City Distance Mag. Time & Date
Minimum magnitude displayed is 2.5.

Coastal Water Temperatures

Place Temperature

Stations

Nearby Weather Stations

Station Location Temp. Windchill Dew Point Humidity Wind Precip. Elev Updated Type
                   

Watches & Warnings

Fire Weather Watch
Issued: 2:46 PM MDT Mar. 25, 2017 – National Weather Service

... Fire Weather Watch in effect Sunday afternoon...

The National Weather Service in Albuquerque has issued a Fire
Weather Watch... which is in effect Sunday afternoon.

* Area and timing... east Central Plains between noon and 6 PM.
The greatest concern exists across De Baca, Curry and Roosevelt
counties.

* 20 foot winds... westerly 20 to 30 mph with gusts to 40 mph.

* Relative humidity... 10 to 15 percent.

* Impacts... any fires that develop will likely spread rapidly.
Outdoor burning is not recommended.

Precautionary/preparedness actions...

Please advise the appropriate officials or fire crews in the
field of this Fire Weather Watch.